sensor_id;sensor_type;location;lat;lon;timestamp;P1;durP1;ratioP1;P2;durP2;ratioP2
59271;SDS011;45043;51.068;7.026;2024-02-04T00:00:19;8.63;;;7.83;;
59271;SDS011;45043;51.068;7.026;2024-02-04T00:03:20;8.83;;;7.73;;
59271;SDS011;45043;51.068;7.026;2024-02-04T00:06:22;7.93;;;7.13;;
59271;SDS011;45043;51.068;7.026;2024-02-04T00:09:22;6.87;;;5.97;;
59271;SDS011;45043;51.068;7.026;2024-02-04T00:12:23;4.30;;;4.00;;
59271;SDS011;45043;51.068;7.026;2024-02-04T00:15:24;3.80;;;3.10;;
59271;SDS011;45043;51.068;7.026;2024-02-04T00:18:24;2.77;;;2.57;;
59271;SDS011;45043;51.068;7.026;2024-02-04T00:21:26;2.03;;;1.93;;
59271;SDS011;45043;51.068;7.026;2024-02-04T00:24:27;2.07;;;1.97;;
59271;SDS011;45043;51.068;7.026;2024-02-04T00:27:27;1.83;;;1.73;;
59271;SDS011;45043;51.068;7.026;2024-02-04T00:30:28;2.47;;;2.27;;
59271;SDS011;45043;51.068;7.026;2024-02-04T00:33:29;2.97;;;2.60;;
59271;SDS011;45043;51.068;7.026;2024-02-04T00:36:29;4.27;;;3.97;;
59271;SDS011;45043;51.068;7.026;2024-02-04T00:39:30;4.73;;;4.20;;
59271;SDS011;45043;51.068;7.026;2024-02-04T00:42:30;5.70;;;5.20;;
59271;SDS011;45043;51.068;7.026;2024-02-04T00:45:31;7.37;;;6.53;;
59271;SDS011;45043;51.068;7.026;2024-02-04T00:48:32;7.73;;;7.00;;
59271;SDS011;45043;51.068;7.026;2024-02-04T00:51:32;8.77;;;7.87;;
59271;SDS011;45043;51.068;7.026;2024-02-04T00:54:33;10.13;;;9.07;;
59271;SDS011;45043;51.068;7.026;2024-02-04T00:57:34;11.40;;;10.10;;
59271;SDS011;45043;51.068;7.026;2024-02-04T01:00:35;11.90;;;10.53;;
59271;SDS011;45043;51.068;7.026;2024-02-04T01:03:36;12.60;;;11.30;;
59271;SDS011;45043;51.068;7.026;2024-02-04T01:06:37;12.53;;;11.17;;
59271;SDS011;45043;51.068;7.026;2024-02-04T01:09:38;12.40;;;11.10;;
59271;SDS011;45043;51.068;7.026;2024-02-04T01:12:38;15.00;;;11.40;;
59271;SDS011;45043;51.068;7.026;2024-02-04T01:15:39;14.27;;;12.20;;
59271;SDS011;45043;51.068;7.026;2024-02-04T01:18:39;13.97;;;11.73;;
59271;SDS011;45043;51.068;7.026;2024-02-04T01:21:40;15.30;;;12.13;;
59271;SDS011;45043;51.068;7.026;2024-02-04T01:24:41;12.23;;;10.93;;
59271;SDS011;45043;51.068;7.026;2024-02-04T01:27:41;13.33;;;10.87;;
59271;SDS011;45043;51.068;7.026;2024-02-04T01:30:42;13.13;;;11.73;;
59271;SDS011;45043;51.068;7.026;2024-02-04T01:33:43;12.47;;;11.17;;
59271;SDS011;45043;51.068;7.026;2024-02-04T01:36:43;12.80;;;10.10;;
59271;SDS011;45043;51.068;7.026;2024-02-04T01:39:44;12.03;;;10.83;;
59271;SDS011;45043;51.068;7.026;2024-02-04T01:42:45;10.27;;;9.27;;
59271;SDS011;45043;51.068;7.026;2024-02-04T01:45:46;11.13;;;10.03;;
59271;SDS011;45043;51.068;7.026;2024-02-04T01:48:47;11.10;;;9.93;;
59271;SDS011;45043;51.068;7.026;2024-02-04T01:51:48;10.20;;;9.13;;
59271;SDS011;45043;51.068;7.026;2024-02-04T01:54:49;9.73;;;8.77;;
59271;SDS011;45043;51.068;7.026;2024-02-04T01:57:51;9.57;;;8.67;;
59271;SDS011;45043;51.068;7.026;2024-02-04T02:00:52;9.07;;;8.17;;
59271;SDS011;45043;51.068;7.026;2024-02-04T02:03:53;8.77;;;7.90;;
59271;SDS011;45043;51.068;7.026;2024-02-04T02:06:55;9.60;;;8.60;;
59271;SDS011;45043;51.068;7.026;2024-02-04T02:09:56;9.40;;;8.50;;
59271;SDS011;45043;51.068;7.026;2024-02-04T02:12:58;8.93;;;8.03;;
59271;SDS011;45043;51.068;7.026;2024-02-04T02:16:10;9.40;;;8.50;;
59271;SDS011;45043;51.068;7.026;2024-02-04T02:22:51;8.20;;;7.43;;
59271;SDS011;45043;51.068;7.026;2024-02-04T02:26:03;9.67;;;8.63;;
59271;SDS011;45043;51.068;7.026;2024-02-04T02:29:05;9.57;;;8.57;;
59271;SDS011;45043;51.068;7.026;2024-02-04T02:32:06;10.23;;;8.87;;
59271;SDS011;45043;51.068;7.026;2024-02-04T02:35:10;10.40;;;8.57;;
59271;SDS011;45043;51.068;7.026;2024-02-04T02:41:35;9.63;;;8.63;;
59271;SDS011;45043;51.068;7.026;2024-02-04T02:44:38;11.70;;;9.23;;
59271;SDS011;45043;51.068;7.026;2024-02-04T02:47:40;10.73;;;8.93;;
59271;SDS011;45043;51.068;7.026;2024-02-04T02:50:43;12.17;;;9.80;;
59271;SDS011;45043;51.068;7.026;2024-02-04T02:53:43;10.80;;;9.70;;
59271;SDS011;45043;51.068;7.026;2024-02-04T02:56:44;12.90;;;9.70;;
59271;SDS011;45043;51.068;7.026;2024-02-04T02:59:45;14.33;;;10.83;;
59271;SDS011;45043;51.068;7.026;2024-02-04T03:02:46;10.80;;;9.60;;
59271;SDS011;45043;51.068;7.026;2024-02-04T03:05:46;10.87;;;9.40;;
59271;SDS011;45043;51.068;7.026;2024-02-04T03:08:47;10.63;;;9.33;;
59271;SDS011;45043;51.068;7.026;2024-02-04T03:11:48;10.87;;;9.23;;
59271;SDS011;45043;51.068;7.026;2024-02-04T03:14:48;11.67;;;9.57;;
59271;SDS011;45043;51.068;7.026;2024-02-04T03:17:49;11.83;;;9.20;;
59271;SDS011;45043;51.068;7.026;2024-02-04T03:20:50;12.17;;;10.00;;
59271;SDS011;45043;51.068;7.026;2024-02-04T03:23:50;11.17;;;9.80;;
59271;SDS011;45043;51.068;7.026;2024-02-04T03:26:51;11.97;;;10.20;;
59271;SDS011;45043;51.068;7.026;2024-02-04T03:29:52;11.30;;;9.73;;
59271;SDS011;45043;51.068;7.026;2024-02-04T03:32:53;10.87;;;9.43;;
59271;SDS011;45043;51.068;7.026;2024-02-04T03:35:54;10.30;;;9.20;;
59271;SDS011;45043;51.068;7.026;2024-02-04T03:38:54;11.90;;;10.70;;
59271;SDS011;45043;51.068;7.026;2024-02-04T03:41:55;11.30;;;10.10;;
59271;SDS011;45043;51.068;7.026;2024-02-04T03:44:56;11.03;;;9.93;;
59271;SDS011;45043;51.068;7.026;2024-02-04T03:47:57;11.03;;;9.93;;
59271;SDS011;45043;51.068;7.026;2024-02-04T03:50:57;11.90;;;10.73;;
59271;SDS011;45043;51.068;7.026;2024-02-04T03:53:58;12.17;;;10.53;;
59271;SDS011;45043;51.068;7.026;2024-02-04T03:56:59;11.93;;;10.73;;
59271;SDS011;45043;51.068;7.026;2024-02-04T04:00:00;11.03;;;9.87;;
59271;SDS011;45043;51.068;7.026;2024-02-04T04:03:00;10.90;;;9.80;;
59271;SDS011;45043;51.068;7.026;2024-02-04T04:06:01;12.00;;;9.57;;
59271;SDS011;45043;51.068;7.026;2024-02-04T04:09:02;10.90;;;9.40;;
59271;SDS011;45043;51.068;7.026;2024-02-04T04:12:03;13.23;;;10.50;;
59271;SDS011;45043;51.068;7.026;2024-02-04T04:15:04;11.80;;;10.60;;
59271;SDS011;45043;51.068;7.026;2024-02-04T04:18:05;12.37;;;11.07;;
59271;SDS011;45043;51.068;7.026;2024-02-04T04:21:06;13.30;;;11.90;;
59271;SDS011;45043;51.068;7.026;2024-02-04T04:24:06;11.77;;;10.57;;
59271;SDS011;45043;51.068;7.026;2024-02-04T04:27:07;13.93;;;11.10;;
59271;SDS011;45043;51.068;7.026;2024-02-04T04:30:08;12.10;;;10.53;;
59271;SDS011;45043;51.068;7.026;2024-02-04T04:33:09;11.67;;;10.47;;
59271;SDS011;45043;51.068;7.026;2024-02-04T04:36:10;13.50;;;10.70;;
59271;SDS011;45043;51.068;7.026;2024-02-04T04:39:10;13.53;;;11.83;;
59271;SDS011;45043;51.068;7.026;2024-02-04T04:42:11;12.17;;;10.60;;
59271;SDS011;45043;51.068;7.026;2024-02-04T04:45:11;11.73;;;10.30;;
59271;SDS011;45043;51.068;7.026;2024-02-04T04:48:14;11.30;;;10.10;;
59271;SDS011;45043;51.068;7.026;2024-02-04T04:51:14;11.10;;;10.00;;
59271;SDS011;45043;51.068;7.026;2024-02-04T04:54:15;11.20;;;10.10;;
59271;SDS011;45043;51.068;7.026;2024-02-04T04:57:16;10.57;;;9.50;;
59271;SDS011;45043;51.068;7.026;2024-02-04T05:00:16;11.07;;;9.23;;
59271;SDS011;45043;51.068;7.026;2024-02-04T05:03:17;10.93;;;9.47;;
59271;SDS011;45043;51.068;7.026;2024-02-04T05:06:18;9.77;;;8.87;;
59271;SDS011;45043;51.068;7.026;2024-02-04T05:09:18;11.10;;;9.23;;
59271;SDS011;45043;51.068;7.026;2024-02-04T05:12:19;8.60;;;7.70;;
59271;SDS011;45043;51.068;7.026;2024-02-04T05:15:20;10.33;;;9.33;;
59271;SDS011;45043;51.068;7.026;2024-02-04T05:18:21;10.73;;;9.20;;
59271;SDS011;45043;51.068;7.026;2024-02-04T05:21:22;11.00;;;9.90;;
59271;SDS011;45043;51.068;7.026;2024-02-04T05:24:22;11.93;;;9.93;;
59271;SDS011;45043;51.068;7.026;2024-02-04T05:27:23;12.17;;;9.97;;
59271;SDS011;45043;51.068;7.026;2024-02-04T05:30:24;12.60;;;11.27;;
59271;SDS011;45043;51.068;7.026;2024-02-04T05:33:24;14.03;;;10.70;;
59271;SDS011;45043;51.068;7.026;2024-02-04T05:36:25;12.03;;;10.83;;
59271;SDS011;45043;51.068;7.026;2024-02-04T05:39:26;13.63;;;10.87;;
59271;SDS011;45043;51.068;7.026;2024-02-04T05:42:26;8.93;;;7.50;;
59271;SDS011;45043;51.068;7.026;2024-02-04T05:45:28;8.30;;;6.93;;
59271;SDS011;45043;51.068;7.026;2024-02-04T05:48:28;8.87;;;7.83;;
59271;SDS011;45043;51.068;7.026;2024-02-04T05:51:30;8.83;;;8.03;;
59271;SDS011;45043;51.068;7.026;2024-02-04T05:54:36;9.80;;;8.80;;
59271;SDS011;45043;51.068;7.026;2024-02-04T05:57:37;9.67;;;8.67;;
59271;SDS011;45043;51.068;7.026;2024-02-04T06:00:38;9.20;;;8.30;;
59271;SDS011;45043;51.068;7.026;2024-02-04T06:03:38;11.30;;;9.00;;
59271;SDS011;45043;51.068;7.026;2024-02-04T06:06:39;8.63;;;7.83;;
59271;SDS011;45043;51.068;7.026;2024-02-04T06:09:39;8.77;;;7.97;;
59271;SDS011;45043;51.068;7.026;2024-02-04T06:12:40;9.83;;;8.33;;
59271;SDS011;45043;51.068;7.026;2024-02-04T06:15:45;9.50;;;8.10;;
59271;SDS011;45043;51.068;7.026;2024-02-04T06:18:45;9.03;;;8.13;;
59271;SDS011;45043;51.068;7.026;2024-02-04T06:21:46;9.30;;;8.40;;
59271;SDS011;45043;51.068;7.026;2024-02-04T06:24:47;8.00;;;7.30;;
59271;SDS011;45043;51.068;7.026;2024-02-04T06:27:47;8.20;;;7.40;;
59271;SDS011;45043;51.068;7.026;2024-02-04T06:30:48;8.97;;;8.10;;
59271;SDS011;45043;51.068;7.026;2024-02-04T06:33:50;8.13;;;7.33;;
59271;SDS011;45043;51.068;7.026;2024-02-04T06:36:51;9.13;;;8.33;;
59271;SDS011;45043;51.068;7.026;2024-02-04T06:39:52;8.63;;;7.73;;
59271;SDS011;45043;51.068;7.026;2024-02-04T06:42:53;9.97;;;7.73;;
59271;SDS011;45043;51.068;7.026;2024-02-04T06:45:53;7.67;;;6.97;;
59271;SDS011;45043;51.068;7.026;2024-02-04T06:48:54;8.50;;;7.70;;
59271;SDS011;45043;51.068;7.026;2024-02-04T06:51:55;9.33;;;5.87;;
59271;SDS011;45043;51.068;7.026;2024-02-04T06:54:58;9.07;;;6.53;;
59271;SDS011;45043;51.068;7.026;2024-02-04T06:57:58;9.33;;;6.37;;
59271;SDS011;45043;51.068;7.026;2024-02-04T07:00:59;10.63;;;6.17;;
59271;SDS011;45043;51.068;7.026;2024-02-04T07:04:00;5.50;;;4.90;;
59271;SDS011;45043;51.068;7.026;2024-02-04T07:07:01;6.40;;;5.37;;
59271;SDS011;45043;51.068;7.026;2024-02-04T07:10:01;6.63;;;5.47;;
59271;SDS011;45043;51.068;7.026;2024-02-04T07:13:02;6.27;;;5.67;;
59271;SDS011;45043;51.068;7.026;2024-02-04T07:16:03;6.90;;;6.13;;
59271;SDS011;45043;51.068;7.026;2024-02-04T07:19:04;6.53;;;5.30;;
59271;SDS011;45043;51.068;7.026;2024-02-04T07:22:05;5.87;;;5.30;;
59271;SDS011;45043;51.068;7.026;2024-02-04T07:25:05;6.03;;;5.53;;
59271;SDS011;45043;51.068;7.026;2024-02-04T07:28:06;5.97;;;5.47;;
59271;SDS011;45043;51.068;7.026;2024-02-04T07:31:06;5.83;;;4.87;;
59271;SDS011;45043;51.068;7.026;2024-02-04T07:34:07;5.03;;;4.63;;
59271;SDS011;45043;51.068;7.026;2024-02-04T07:37:08;4.20;;;3.90;;
59271;SDS011;45043;51.068;7.026;2024-02-04T07:40:09;4.03;;;3.73;;
59271;SDS011;45043;51.068;7.026;2024-02-04T07:43:09;4.17;;;3.77;;
59271;SDS011;45043;51.068;7.026;2024-02-04T07:46:10;3.53;;;3.23;;
59271;SDS011;45043;51.068;7.026;2024-02-04T07:49:11;2.80;;;2.60;;
59271;SDS011;45043;51.068;7.026;2024-02-04T07:52:12;3.27;;;3.07;;
59271;SDS011;45043;51.068;7.026;2024-02-04T07:55:13;3.40;;;2.83;;
59271;SDS011;45043;51.068;7.026;2024-02-04T07:58:13;2.67;;;2.47;;
59271;SDS011;45043;51.068;7.026;2024-02-04T08:01:14;2.33;;;2.20;;
59271;SDS011;45043;51.068;7.026;2024-02-04T08:04:14;3.33;;;2.40;;
59271;SDS011;45043;51.068;7.026;2024-02-04T08:07:16;2.13;;;1.93;;
59271;SDS011;45043;51.068;7.026;2024-02-04T08:10:18;2.03;;;1.83;;
59271;SDS011;45043;51.068;7.026;2024-02-04T08:13:18;2.97;;;1.60;;
59271;SDS011;45043;51.068;7.026;2024-02-04T08:16:19;2.07;;;1.97;;
59271;SDS011;45043;51.068;7.026;2024-02-04T08:19:20;2.60;;;2.40;;
59271;SDS011;45043;51.068;7.026;2024-02-04T08:22:21;2.10;;;2.00;;
59271;SDS011;45043;51.068;7.026;2024-02-04T08:25:22;2.30;;;2.10;;
59271;SDS011;45043;51.068;7.026;2024-02-04T08:28:22;2.93;;;2.50;;
59271;SDS011;45043;51.068;7.026;2024-02-04T08:31:24;2.70;;;2.50;;
59271;SDS011;45043;51.068;7.026;2024-02-04T08:34:25;2.60;;;2.40;;
59271;SDS011;45043;51.068;7.026;2024-02-04T08:37:26;3.50;;;3.07;;
59271;SDS011;45043;51.068;7.026;2024-02-04T08:40:26;3.67;;;3.37;;
59271;SDS011;45043;51.068;7.026;2024-02-04T08:43:28;4.43;;;3.43;;
59271;SDS011;45043;51.068;7.026;2024-02-04T08:46:28;3.83;;;3.53;;
59271;SDS011;45043;51.068;7.026;2024-02-04T08:49:29;4.33;;;3.90;;
59271;SDS011;45043;51.068;7.026;2024-02-04T08:52:30;4.17;;;3.80;;
59271;SDS011;45043;51.068;7.026;2024-02-04T08:55:31;4.50;;;4.10;;
59271;SDS011;45043;51.068;7.026;2024-02-04T08:58:31;4.83;;;4.03;;
59271;SDS011;45043;51.068;7.026;2024-02-04T09:01:32;5.33;;;4.90;;
59271;SDS011;45043;51.068;7.026;2024-02-04T09:04:33;4.00;;;3.70;;
59271;SDS011;45043;51.068;7.026;2024-02-04T09:07:40;4.80;;;4.30;;
59271;SDS011;45043;51.068;7.026;2024-02-04T09:10:41;4.70;;;4.20;;
59271;SDS011;45043;51.068;7.026;2024-02-04T09:13:42;6.73;;;6.03;;
59271;SDS011;45043;51.068;7.026;2024-02-04T09:16:42;7.30;;;5.63;;
59271;SDS011;45043;51.068;7.026;2024-02-04T09:19:44;4.80;;;4.40;;
59271;SDS011;45043;51.068;7.026;2024-02-04T09:22:45;6.20;;;5.40;;
59271;SDS011;45043;51.068;7.026;2024-02-04T09:25:45;11.60;;;7.33;;
59271;SDS011;45043;51.068;7.026;2024-02-04T09:28:46;4.30;;;3.90;;
59271;SDS011;45043;51.068;7.026;2024-02-04T09:31:47;6.30;;;4.90;;
59271;SDS011;45043;51.068;7.026;2024-02-04T09:34:50;4.23;;;3.80;;
59271;SDS011;45043;51.068;7.026;2024-02-04T09:37:53;4.30;;;3.77;;
59271;SDS011;45043;51.068;7.026;2024-02-04T09:40:54;3.83;;;3.43;;
59271;SDS011;45043;51.068;7.026;2024-02-04T09:43:54;4.33;;;3.30;;
59271;SDS011;45043;51.068;7.026;2024-02-04T09:46:56;4.07;;;3.37;;
59271;SDS011;45043;51.068;7.026;2024-02-04T09:49:58;3.37;;;2.90;;
59271;SDS011;45043;51.068;7.026;2024-02-04T09:52:59;2.73;;;2.53;;
59271;SDS011;45043;51.068;7.026;2024-02-04T09:56:03;2.87;;;2.60;;
59271;SDS011;45043;51.068;7.026;2024-02-04T09:59:06;2.67;;;2.37;;
59271;SDS011;45043;51.068;7.026;2024-02-04T10:02:07;4.50;;;4.10;;
59271;SDS011;45043;51.068;7.026;2024-02-04T10:05:08;4.03;;;3.67;;
59271;SDS011;45043;51.068;7.026;2024-02-04T10:08:10;4.00;;;3.60;;
59271;SDS011;45043;51.068;7.026;2024-02-04T10:11:11;3.30;;;3.00;;
59271;SDS011;45043;51.068;7.026;2024-02-04T10:14:12;3.33;;;3.03;;
59271;SDS011;45043;51.068;7.026;2024-02-04T10:17:13;3.67;;;3.33;;
59271;SDS011;45043;51.068;7.026;2024-02-04T10:20:16;3.73;;;3.30;;
59271;SDS011;45043;51.068;7.026;2024-02-04T10:23:17;3.60;;;3.30;;
59271;SDS011;45043;51.068;7.026;2024-02-04T10:26:18;4.00;;;3.37;;
59271;SDS011;45043;51.068;7.026;2024-02-04T10:29:23;3.60;;;3.10;;
59271;SDS011;45043;51.068;7.026;2024-02-04T10:32:25;4.00;;;3.47;;
59271;SDS011;45043;51.068;7.026;2024-02-04T10:35:26;3.90;;;3.50;;
59271;SDS011;45043;51.068;7.026;2024-02-04T10:38:27;3.97;;;3.63;;
59271;SDS011;45043;51.068;7.026;2024-02-04T10:41:28;5.10;;;4.17;;
59271;SDS011;45043;51.068;7.026;2024-02-04T10:44:35;6.43;;;4.53;;
59271;SDS011;45043;51.068;7.026;2024-02-04T10:47:39;6.23;;;4.80;;
59271;SDS011;45043;51.068;7.026;2024-02-04T10:50:40;5.27;;;4.73;;
59271;SDS011;45043;51.068;7.026;2024-02-04T10:53:44;6.33;;;5.23;;
59271;SDS011;45043;51.068;7.026;2024-02-04T10:56:45;5.50;;;4.90;;
59271;SDS011;45043;51.068;7.026;2024-02-04T10:59:50;8.53;;;6.03;;
59271;SDS011;45043;51.068;7.026;2024-02-04T11:02:52;7.77;;;5.50;;
59271;SDS011;45043;51.068;7.026;2024-02-04T11:05:54;6.50;;;5.33;;
59271;SDS011;45043;51.068;7.026;2024-02-04T11:08:55;5.40;;;4.63;;
59271;SDS011;45043;51.068;7.026;2024-02-04T11:11:58;6.07;;;4.70;;
59271;SDS011;45043;51.068;7.026;2024-02-04T11:15:01;7.63;;;4.73;;
59271;SDS011;45043;51.068;7.026;2024-02-04T11:18:11;4.90;;;4.40;;
59271;SDS011;45043;51.068;7.026;2024-02-04T11:21:46;5.50;;;4.33;;
59271;SDS011;45043;51.068;7.026;2024-02-04T11:28:24;4.20;;;3.80;;
59271;SDS011;45043;51.068;7.026;2024-02-04T11:31:27;6.10;;;3.80;;
59271;SDS011;45043;51.068;7.026;2024-02-04T11:34:29;4.90;;;4.13;;
59271;SDS011;45043;51.068;7.026;2024-02-04T11:37:30;4.50;;;3.83;;
59271;SDS011;45043;51.068;7.026;2024-02-04T11:40:36;5.20;;;4.70;;
59271;SDS011;45043;51.068;7.026;2024-02-04T11:43:37;5.10;;;4.17;;
59271;SDS011;45043;51.068;7.026;2024-02-04T11:46:45;4.80;;;4.30;;
59271;SDS011;45043;51.068;7.026;2024-02-04T11:49:53;4.77;;;4.10;;
59271;SDS011;45043;51.068;7.026;2024-02-04T11:53:01;4.50;;;4.10;;
59271;SDS011;45043;51.068;7.026;2024-02-04T11:56:06;5.37;;;3.77;;
59271;SDS011;45043;51.068;7.026;2024-02-04T11:59:06;3.57;;;3.27;;
59271;SDS011;45043;51.068;7.026;2024-02-04T12:02:08;5.63;;;4.47;;
59271;SDS011;45043;51.068;7.026;2024-02-04T12:05:09;5.07;;;4.27;;
59271;SDS011;45043;51.068;7.026;2024-02-04T12:08:10;6.37;;;4.47;;
59271;SDS011;45043;51.068;7.026;2024-02-04T12:11:12;5.00;;;4.50;;
59271;SDS011;45043;51.068;7.026;2024-02-04T12:14:13;5.87;;;4.40;;
59271;SDS011;45043;51.068;7.026;2024-02-04T12:17:14;5.77;;;4.80;;
59271;SDS011;45043;51.068;7.026;2024-02-04T12:20:16;4.77;;;4.37;;
59271;SDS011;45043;51.068;7.026;2024-02-04T12:23:17;7.00;;;5.07;;
59271;SDS011;45043;51.068;7.026;2024-02-04T12:26:22;6.70;;;4.73;;
59271;SDS011;45043;51.068;7.026;2024-02-04T12:29:23;5.27;;;4.77;;
59271;SDS011;45043;51.068;7.026;2024-02-04T12:32:24;6.03;;;5.00;;
59271;SDS011;45043;51.068;7.026;2024-02-04T12:35:28;6.33;;;4.70;;
59271;SDS011;45043;51.068;7.026;2024-02-04T12:38:29;4.73;;;4.17;;
59271;SDS011;45043;51.068;7.026;2024-02-04T12:41:29;5.60;;;4.50;;
59271;SDS011;45043;51.068;7.026;2024-02-04T12:44:30;4.77;;;4.30;;
59271;SDS011;45043;51.068;7.026;2024-02-04T12:47:32;6.70;;;5.03;;
59271;SDS011;45043;51.068;7.026;2024-02-04T12:50:32;5.33;;;4.67;;
59271;SDS011;45043;51.068;7.026;2024-02-04T12:53:36;4.67;;;4.27;;
59271;SDS011;45043;51.068;7.026;2024-02-04T12:59:44;5.07;;;4.57;;
59271;SDS011;45043;51.068;7.026;2024-02-04T13:02:49;4.90;;;4.50;;
59271;SDS011;45043;51.068;7.026;2024-02-04T13:05:51;4.70;;;4.30;;
59271;SDS011;45043;51.068;7.026;2024-02-04T13:08:54;6.17;;;5.10;;
59271;SDS011;45043;51.068;7.026;2024-02-04T13:12:02;5.80;;;5.30;;
59271;SDS011;45043;51.068;7.026;2024-02-04T13:15:04;4.33;;;4.03;;
59271;SDS011;45043;51.068;7.026;2024-02-04T13:18:05;4.97;;;4.57;;
59271;SDS011;45043;51.068;7.026;2024-02-04T13:21:06;5.70;;;4.97;;
59271;SDS011;45043;51.068;7.026;2024-02-04T13:24:07;5.57;;;5.07;;
59271;SDS011;45043;51.068;7.026;2024-02-04T13:27:07;5.20;;;4.80;;
59271;SDS011;45043;51.068;7.026;2024-02-04T13:30:08;5.97;;;5.37;;
59271;SDS011;45043;51.068;7.026;2024-02-04T13:33:13;5.17;;;4.50;;
59271;SDS011;45043;51.068;7.026;2024-02-04T13:36:14;5.50;;;5.10;;
59271;SDS011;45043;51.068;7.026;2024-02-04T13:39:14;5.50;;;5.10;;
59271;SDS011;45043;51.068;7.026;2024-02-04T13:42:18;5.90;;;5.40;;
59271;SDS011;45043;51.068;7.026;2024-02-04T13:45:19;5.97;;;5.47;;
59271;SDS011;45043;51.068;7.026;2024-02-04T13:48:19;4.40;;;3.90;;
59271;SDS011;45043;51.068;7.026;2024-02-04T13:51:22;4.70;;;4.37;;
59271;SDS011;45043;51.068;7.026;2024-02-04T13:54:22;4.23;;;3.93;;
59271;SDS011;45043;51.068;7.026;2024-02-04T13:57:23;4.37;;;3.77;;
59271;SDS011;45043;51.068;7.026;2024-02-04T14:00:24;5.27;;;3.70;;
59271;SDS011;45043;51.068;7.026;2024-02-04T14:03:24;4.17;;;3.70;;
59271;SDS011;45043;51.068;7.026;2024-02-04T14:06:25;4.30;;;4.00;;
59271;SDS011;45043;51.068;7.026;2024-02-04T14:09:26;4.30;;;3.90;;
59271;SDS011;45043;51.068;7.026;2024-02-04T14:12:27;4.10;;;3.70;;
59271;SDS011;45043;51.068;7.026;2024-02-04T14:15:30;5.57;;;3.47;;
59271;SDS011;45043;51.068;7.026;2024-02-04T14:18:31;3.57;;;3.27;;
59271;SDS011;45043;51.068;7.026;2024-02-04T14:21:31;5.00;;;2.90;;
59271;SDS011;45043;51.068;7.026;2024-02-04T14:24:32;2.87;;;2.60;;
59271;SDS011;45043;51.068;7.026;2024-02-04T14:27:34;2.93;;;2.73;;
59271;SDS011;45043;51.068;7.026;2024-02-04T14:30:34;2.90;;;2.60;;
59271;SDS011;45043;51.068;7.026;2024-02-04T14:33:35;2.57;;;2.37;;
59271;SDS011;45043;51.068;7.026;2024-02-04T14:36:38;2.87;;;2.40;;
59271;SDS011;45043;51.068;7.026;2024-02-04T14:39:42;3.50;;;2.30;;
59271;SDS011;45043;51.068;7.026;2024-02-04T14:42:44;2.50;;;2.30;;
59271;SDS011;45043;51.068;7.026;2024-02-04T14:45:46;2.53;;;2.33;;
59271;SDS011;45043;51.068;7.026;2024-02-04T14:48:50;2.63;;;2.43;;
59271;SDS011;45043;51.068;7.026;2024-02-04T14:51:52;2.23;;;2.13;;
59271;SDS011;45043;51.068;7.026;2024-02-04T14:54:59;2.50;;;2.30;;
59271;SDS011;45043;51.068;7.026;2024-02-04T14:58:01;2.60;;;2.40;;
59271;SDS011;45043;51.068;7.026;2024-02-04T15:01:03;2.60;;;2.40;;
59271;SDS011;45043;51.068;7.026;2024-02-04T15:04:05;2.90;;;2.60;;
59271;SDS011;45043;51.068;7.026;2024-02-04T15:07:09;2.90;;;2.63;;
59271;SDS011;45043;51.068;7.026;2024-02-04T15:10:14;2.93;;;2.60;;
59271;SDS011;45043;51.068;7.026;2024-02-04T15:13:15;2.97;;;2.70;;
59271;SDS011;45043;51.068;7.026;2024-02-04T15:16:16;2.70;;;2.50;;
59271;SDS011;45043;51.068;7.026;2024-02-04T15:19:18;2.70;;;2.50;;
59271;SDS011;45043;51.068;7.026;2024-02-04T15:22:20;3.00;;;2.70;;
59271;SDS011;45043;51.068;7.026;2024-02-04T15:25:22;3.90;;;2.90;;
59271;SDS011;45043;51.068;7.026;2024-02-04T15:28:30;2.73;;;2.47;;
59271;SDS011;45043;51.068;7.026;2024-02-04T15:31:32;2.20;;;2.10;;
59271;SDS011;45043;51.068;7.026;2024-02-04T15:34:34;2.67;;;2.47;;
59271;SDS011;45043;51.068;7.026;2024-02-04T15:37:36;2.90;;;2.63;;
59271;SDS011;45043;51.068;7.026;2024-02-04T15:40:38;3.07;;;2.73;;
59271;SDS011;45043;51.068;7.026;2024-02-04T15:43:40;2.53;;;2.33;;
59271;SDS011;45043;51.068;7.026;2024-02-04T15:46:41;3.20;;;2.90;;
59271;SDS011;45043;51.068;7.026;2024-02-04T15:49:46;2.63;;;2.37;;
59271;SDS011;45043;51.068;7.026;2024-02-04T15:52:50;2.63;;;2.43;;
59271;SDS011;45043;51.068;7.026;2024-02-04T15:55:51;3.17;;;2.87;;
59271;SDS011;45043;51.068;7.026;2024-02-04T15:58:57;3.00;;;2.50;;
59271;SDS011;45043;51.068;7.026;2024-02-04T16:02:10;2.70;;;2.50;;
59271;SDS011;45043;51.068;7.026;2024-02-04T16:05:12;3.03;;;2.80;;
59271;SDS011;45043;51.068;7.026;2024-02-04T16:08:15;3.17;;;2.90;;
59271;SDS011;45043;51.068;7.026;2024-02-04T16:11:18;2.60;;;2.40;;
59271;SDS011;45043;51.068;7.026;2024-02-04T16:14:24;2.70;;;2.50;;
59271;SDS011;45043;51.068;7.026;2024-02-04T16:17:30;3.67;;;2.40;;
59271;SDS011;45043;51.068;7.026;2024-02-04T16:20:33;2.30;;;2.20;;
59271;SDS011;45043;51.068;7.026;2024-02-04T16:23:40;2.57;;;2.37;;
59271;SDS011;45043;51.068;7.026;2024-02-04T16:26:41;2.80;;;2.60;;
59271;SDS011;45043;51.068;7.026;2024-02-04T16:29:41;2.70;;;2.50;;
59271;SDS011;45043;51.068;7.026;2024-02-04T16:32:45;2.40;;;2.20;;
59271;SDS011;45043;51.068;7.026;2024-02-04T16:35:46;2.73;;;2.50;;
59271;SDS011;45043;51.068;7.026;2024-02-04T16:38:48;2.90;;;2.40;;
59271;SDS011;45043;51.068;7.026;2024-02-04T16:41:50;2.50;;;2.20;;
59271;SDS011;45043;51.068;7.026;2024-02-04T16:44:51;2.60;;;2.40;;
59271;SDS011;45043;51.068;7.026;2024-02-04T16:47:53;2.67;;;2.47;;
59271;SDS011;45043;51.068;7.026;2024-02-04T16:50:54;2.33;;;2.20;;
59271;SDS011;45043;51.068;7.026;2024-02-04T16:53:56;2.73;;;2.30;;
59271;SDS011;45043;51.068;7.026;2024-02-04T16:56:57;2.70;;;2.33;;
59271;SDS011;45043;51.068;7.026;2024-02-04T16:59:59;2.53;;;2.20;;
59271;SDS011;45043;51.068;7.026;2024-02-04T17:03:00;2.10;;;2.00;;
59271;SDS011;45043;51.068;7.026;2024-02-04T17:06:02;2.90;;;2.00;;
59271;SDS011;45043;51.068;7.026;2024-02-04T17:09:04;2.47;;;1.93;;
59271;SDS011;45043;51.068;7.026;2024-02-04T17:12:15;3.27;;;2.20;;
59271;SDS011;45043;51.068;7.026;2024-02-04T17:15:16;2.10;;;2.00;;
59271;SDS011;45043;51.068;7.026;2024-02-04T17:18:21;3.17;;;2.13;;
59271;SDS011;45043;51.068;7.026;2024-02-04T17:26:13;3.07;;;2.53;;
59271;SDS011;45043;51.068;7.026;2024-02-04T17:33:44;3.63;;;2.40;;
59271;SDS011;45043;51.068;7.026;2024-02-04T17:36:51;2.90;;;2.70;;
59271;SDS011;45043;51.068;7.026;2024-02-04T17:39:52;3.47;;;2.90;;
59271;SDS011;45043;51.068;7.026;2024-02-04T17:42:54;3.77;;;2.93;;
59271;SDS011;45043;51.068;7.026;2024-02-04T17:45:54;3.83;;;3.17;;
59271;SDS011;45043;51.068;7.026;2024-02-04T17:48:56;4.40;;;3.50;;
59271;SDS011;45043;51.068;7.026;2024-02-04T17:51:57;6.20;;;3.40;;
59271;SDS011;45043;51.068;7.026;2024-02-04T17:55:02;4.23;;;3.30;;
59271;SDS011;45043;51.068;7.026;2024-02-04T17:58:04;5.23;;;3.63;;
59271;SDS011;45043;51.068;7.026;2024-02-04T18:01:06;3.40;;;3.10;;
59271;SDS011;45043;51.068;7.026;2024-02-04T18:04:07;5.80;;;3.60;;
59271;SDS011;45043;51.068;7.026;2024-02-04T18:07:08;4.57;;;3.40;;
59271;SDS011;45043;51.068;7.026;2024-02-04T18:10:12;4.77;;;3.43;;
59271;SDS011;45043;51.068;7.026;2024-02-04T18:13:13;6.77;;;3.73;;
59271;SDS011;45043;51.068;7.026;2024-02-04T18:16:16;6.83;;;3.70;;
59271;SDS011;45043;51.068;7.026;2024-02-04T18:19:17;5.20;;;4.50;;
59271;SDS011;45043;51.068;7.026;2024-02-04T18:22:18;4.73;;;4.20;;
59271;SDS011;45043;51.068;7.026;2024-02-04T18:25:19;5.37;;;4.60;;
59271;SDS011;45043;51.068;7.026;2024-02-04T18:28:19;5.67;;;4.43;;
59271;SDS011;45043;51.068;7.026;2024-02-04T18:31:21;6.93;;;3.73;;